sensor_id;sensor_type;location;lat;lon;timestamp;pressure;altitude;pressure_sealevel;temperature;humidity
15750;BME280;7976;52.526;13.326;2023-03-19T00:00:21;100884.72;;;12.49;70.06
15750;BME280;7976;52.526;13.326;2023-03-19T00:02:49;100885.91;;;12.42;70.11
15750;BME280;7976;52.526;13.326;2023-03-19T00:05:17;100896.38;;;12.42;70.19
15750;BME280;7976;52.526;13.326;2023-03-19T00:07:44;100889.47;;;12.39;69.94
15750;BME280;7976;52.526;13.326;2023-03-19T00:10:11;100896.53;;;12.39;70.04
15750;BME280;7976;52.526;13.326;2023-03-19T00:12:38;100885.31;;;12.35;69.66
15750;BME280;7976;52.526;13.326;2023-03-19T00:15:06;100884.63;;;12.30;70.05
15750;BME280;7976;52.526;13.326;2023-03-19T00:17:39;100882.97;;;12.28;69.64
15750;BME280;7976;52.526;13.326;2023-03-19T00:20:10;100888.38;;;12.25;69.99
15750;BME280;7976;52.526;13.326;2023-03-19T00:22:37;100898.94;;;12.23;69.90
15750;BME280;7976;52.526;13.326;2023-03-19T00:25:05;100884.22;;;12.19;69.89
15750;BME280;7976;52.526;13.326;2023-03-19T00:27:34;100890.47;;;12.17;70.00
15750;BME280;7976;52.526;13.326;2023-03-19T00:30:02;100875.69;;;12.14;69.43
15750;BME280;7976;52.526;13.326;2023-03-19T00:32:29;100891.56;;;12.11;69.39
15750;BME280;7976;52.526;13.326;2023-03-19T00:34:59;100896.00;;;12.09;69.28
15750;BME280;7976;52.526;13.326;2023-03-19T00:37:27;100883.88;;;12.07;69.01
15750;BME280;7976;52.526;13.326;2023-03-19T00:39:54;100887.53;;;12.03;69.02
15750;BME280;7976;52.526;13.326;2023-03-19T00:42:21;100891.97;;;12.01;68.70
15750;BME280;7976;52.526;13.326;2023-03-19T00:44:48;100893.88;;;11.97;68.64
15750;BME280;7976;52.526;13.326;2023-03-19T00:47:15;100887.06;;;11.93;68.54
15750;BME280;7976;52.526;13.326;2023-03-19T00:49:42;100889.81;;;11.90;68.51
15750;BME280;7976;52.526;13.326;2023-03-19T00:52:11;100889.09;;;11.87;68.51
15750;BME280;7976;52.526;13.326;2023-03-19T00:54:39;100890.84;;;11.86;68.11
15750;BME280;7976;52.526;13.326;2023-03-19T00:57:07;100893.53;;;11.85;67.91
15750;BME280;7976;52.526;13.326;2023-03-19T00:59:34;100894.38;;;11.85;67.82
15750;BME280;7976;52.526;13.326;2023-03-19T01:02:27;100895.34;;;11.83;67.92
15750;BME280;7976;52.526;13.326;2023-03-19T01:04:54;100902.41;;;11.81;67.94
15750;BME280;7976;52.526;13.326;2023-03-19T01:07:38;100893.78;;;11.79;67.57
15750;BME280;7976;52.526;13.326;2023-03-19T01:10:10;100894.75;;;11.76;67.69
15750;BME280;7976;52.526;13.326;2023-03-19T01:12:48;100891.44;;;11.71;67.46
15750;BME280;7976;52.526;13.326;2023-03-19T01:15:16;100887.28;;;11.66;67.03
15750;BME280;7976;52.526;13.326;2023-03-19T01:17:47;100895.22;;;11.64;67.05
15750;BME280;7976;52.526;13.326;2023-03-19T01:20:21;100903.09;;;11.64;66.46
15750;BME280;7976;52.526;13.326;2023-03-19T01:23:11;100901.41;;;11.62;66.72
15750;BME280;7976;52.526;13.326;2023-03-19T01:28:41;100900.69;;;11.58;66.56
15750;BME280;7976;52.526;13.326;2023-03-19T01:31:10;100898.28;;;11.52;66.68
15750;BME280;7976;52.526;13.326;2023-03-19T01:34:11;100904.31;;;11.54;66.63
15750;BME280;7976;52.526;13.326;2023-03-19T01:36:46;100900.06;;;11.52;66.67
15750;BME280;7976;52.526;13.326;2023-03-19T01:39:18;100895.66;;;11.52;66.87
15750;BME280;7976;52.526;13.326;2023-03-19T01:42:13;100903.50;;;11.52;66.39
15750;BME280;7976;52.526;13.326;2023-03-19T01:44:52;100902.84;;;11.47;66.33
15750;BME280;7976;52.526;13.326;2023-03-19T01:47:57;100903.88;;;11.43;66.38
15750;BME280;7976;52.526;13.326;2023-03-19T01:53:26;100907.41;;;11.42;66.44
15750;BME280;7976;52.526;13.326;2023-03-19T01:56:31;100908.25;;;11.43;66.29
15750;BME280;7976;52.526;13.326;2023-03-19T01:59:39;100915.31;;;11.40;66.42
15750;BME280;7976;52.526;13.326;2023-03-19T02:02:37;100908.31;;;11.41;66.27
15750;BME280;7976;52.526;13.326;2023-03-19T02:05:19;100908.31;;;11.41;66.04
15750;BME280;7976;52.526;13.326;2023-03-19T02:07:54;100906.63;;;11.40;65.98
15750;BME280;7976;52.526;13.326;2023-03-19T02:10:23;100905.88;;;11.36;65.80
15750;BME280;7976;52.526;13.326;2023-03-19T02:12:52;100903.31;;;11.35;66.00
15750;BME280;7976;52.526;13.326;2023-03-19T02:15:19;100893.69;;;11.35;65.55
15750;BME280;7976;52.526;13.326;2023-03-19T02:17:46;100893.75;;;11.34;65.93
15750;BME280;7976;52.526;13.326;2023-03-19T02:20:22;100888.50;;;11.34;65.68
15750;BME280;7976;52.526;13.326;2023-03-19T02:23:05;100889.53;;;11.30;65.52
15750;BME280;7976;52.526;13.326;2023-03-19T02:25:41;100894.88;;;11.27;65.57
15750;BME280;7976;52.526;13.326;2023-03-19T02:28:15;100888.94;;;11.23;65.72
15750;BME280;7976;52.526;13.326;2023-03-19T02:30:43;100897.63;;;11.24;65.64
15750;BME280;7976;52.526;13.326;2023-03-19T02:33:12;100896.81;;;11.22;65.61
15750;BME280;7976;52.526;13.326;2023-03-19T02:35:40;100895.97;;;11.21;65.57
15750;BME280;7976;52.526;13.326;2023-03-19T02:38:10;100898.53;;;11.23;65.55
15750;BME280;7976;52.526;13.326;2023-03-19T02:40:43;100901.22;;;11.21;65.38
15750;BME280;7976;52.526;13.326;2023-03-19T02:43:13;100897.81;;;11.19;65.19
15750;BME280;7976;52.526;13.326;2023-03-19T02:45:40;100903.03;;;11.19;65.26
15750;BME280;7976;52.526;13.326;2023-03-19T02:48:07;100891.81;;;11.16;65.08
15750;BME280;7976;52.526;13.326;2023-03-19T02:50:34;100897.00;;;11.17;65.27
15750;BME280;7976;52.526;13.326;2023-03-19T02:53:01;100890.88;;;11.18;65.08
15750;BME280;7976;52.526;13.326;2023-03-19T02:55:28;100897.75;;;11.21;65.29
15750;BME280;7976;52.526;13.326;2023-03-19T02:57:55;100885.50;;;11.21;65.19
15750;BME280;7976;52.526;13.326;2023-03-19T03:00:23;100888.94;;;11.22;65.65
15750;BME280;7976;52.526;13.326;2023-03-19T03:02:50;100883.69;;;11.23;65.49
15750;BME280;7976;52.526;13.326;2023-03-19T03:05:17;100880.16;;;11.24;65.41
15750;BME280;7976;52.526;13.326;2023-03-19T03:07:44;100883.63;;;11.25;65.42
15750;BME280;7976;52.526;13.326;2023-03-19T03:10:11;100886.31;;;11.23;65.33
15750;BME280;7976;52.526;13.326;2023-03-19T03:12:39;100888.06;;;11.23;65.13
15750;BME280;7976;52.526;13.326;2023-03-19T03:15:07;100880.22;;;11.23;65.14
15750;BME280;7976;52.526;13.326;2023-03-19T03:17:38;100882.81;;;11.23;64.99
15750;BME280;7976;52.526;13.326;2023-03-19T03:20:08;100881.09;;;11.22;64.99
15750;BME280;7976;52.526;13.326;2023-03-19T03:22:36;100889.88;;;11.21;65.01
15750;BME280;7976;52.526;13.326;2023-03-19T03:25:05;100888.19;;;11.20;64.70
15750;BME280;7976;52.526;13.326;2023-03-19T03:27:32;100898.75;;;11.17;64.68
15750;BME280;7976;52.526;13.326;2023-03-19T03:29:59;100903.22;;;11.15;64.47
15750;BME280;7976;52.526;13.326;2023-03-19T03:32:26;100918.94;;;11.15;64.48
15750;BME280;7976;52.526;13.326;2023-03-19T03:34:55;100938.16;;;11.14;64.68
15750;BME280;7976;52.526;13.326;2023-03-19T03:37:22;100940.09;;;11.09;64.95
15750;BME280;7976;52.526;13.326;2023-03-19T03:39:48;100935.03;;;11.04;65.28
15750;BME280;7976;52.526;13.326;2023-03-19T03:42:17;100926.31;;;11.04;65.40
15750;BME280;7976;52.526;13.326;2023-03-19T03:44:44;100932.34;;;11.06;65.81
15750;BME280;7976;52.526;13.326;2023-03-19T03:47:12;100934.91;;;11.07;65.77
15750;BME280;7976;52.526;13.326;2023-03-19T03:49:39;100933.97;;;11.10;66.01
15750;BME280;7976;52.526;13.326;2023-03-19T03:52:08;100944.44;;;11.10;65.91
15750;BME280;7976;52.526;13.326;2023-03-19T03:54:35;100927.91;;;11.08;66.00
15750;BME280;7976;52.526;13.326;2023-03-19T03:57:02;100940.09;;;11.09;66.08
15750;BME280;7976;52.526;13.326;2023-03-19T03:59:29;100943.50;;;11.11;66.00
15750;BME280;7976;52.526;13.326;2023-03-19T04:01:57;100933.03;;;11.11;65.84
15750;BME280;7976;52.526;13.326;2023-03-19T04:04:24;100937.34;;;11.12;65.64
15750;BME280;7976;52.526;13.326;2023-03-19T04:06:51;100941.63;;;11.14;65.48
15750;BME280;7976;52.526;13.326;2023-03-19T04:09:28;100944.31;;;11.13;65.60
15750;BME280;7976;52.526;13.326;2023-03-19T04:11:55;100940.78;;;11.14;65.63
15750;BME280;7976;52.526;13.326;2023-03-19T04:14:22;100951.19;;;11.15;65.50
15750;BME280;7976;52.526;13.326;2023-03-19T04:16:49;100948.56;;;11.15;65.80
15750;BME280;7976;52.526;13.326;2023-03-19T04:19:16;100948.50;;;11.17;65.64
15750;BME280;7976;52.526;13.326;2023-03-19T04:21:43;100954.56;;;11.19;65.34
15750;BME280;7976;52.526;13.326;2023-03-19T04:24:10;100952.00;;;11.17;65.25
15750;BME280;7976;52.526;13.326;2023-03-19T04:26:39;100963.47;;;11.15;65.47
15750;BME280;7976;52.526;13.326;2023-03-19T04:29:07;100964.28;;;11.15;65.52
15750;BME280;7976;52.526;13.326;2023-03-19T04:31:34;100970.34;;;11.17;65.36
15750;BME280;7976;52.526;13.326;2023-03-19T04:34:01;100975.56;;;11.17;65.32
15750;BME280;7976;52.526;13.326;2023-03-19T04:36:28;100978.25;;;11.16;65.50
15750;BME280;7976;52.526;13.326;2023-03-19T04:38:55;100988.84;;;11.13;65.57
15750;BME280;7976;52.526;13.326;2023-03-19T04:41:22;100990.72;;;11.09;65.45
15750;BME280;7976;52.526;13.326;2023-03-19T04:44:03;100988.22;;;11.06;65.72
15750;BME280;7976;52.526;13.326;2023-03-19T04:46:31;100979.47;;;11.06;65.99
15750;BME280;7976;52.526;13.326;2023-03-19T04:48:58;100989.97;;;11.06;65.88
15750;BME280;7976;52.526;13.326;2023-03-19T04:51:26;100981.28;;;11.04;66.37
15750;BME280;7976;52.526;13.326;2023-03-19T04:53:54;100984.09;;;10.99;66.50
15750;BME280;7976;52.526;13.326;2023-03-19T04:56:22;100986.94;;;10.93;66.95
15750;BME280;7976;52.526;13.326;2023-03-19T04:58:48;100987.88;;;10.91;67.38
15750;BME280;7976;52.526;13.326;2023-03-19T05:01:17;100981.78;;;10.90;68.09
15750;BME280;7976;52.526;13.326;2023-03-19T05:04:10;100980.03;;;10.91;68.35
15750;BME280;7976;52.526;13.326;2023-03-19T05:06:38;100975.59;;;10.93;68.52
15750;BME280;7976;52.526;13.326;2023-03-19T05:09:06;100964.31;;;10.91;68.92
15750;BME280;7976;52.526;13.326;2023-03-19T05:11:34;100960.88;;;10.89;69.57
15750;BME280;7976;52.526;13.326;2023-03-19T05:14:04;100961.91;;;10.85;71.12
15750;BME280;7976;52.526;13.326;2023-03-19T05:16:56;100959.44;;;10.80;72.98
15750;BME280;7976;52.526;13.326;2023-03-19T05:19:25;100960.41;;;10.78;74.51
15750;BME280;7976;52.526;13.326;2023-03-19T05:21:52;100977.94;;;10.76;75.69
15750;BME280;7976;52.526;13.326;2023-03-19T05:24:23;100998.22;;;10.69;76.11
15750;BME280;7976;52.526;13.326;2023-03-19T05:26:51;100998.47;;;10.62;76.82
15750;BME280;7976;52.526;13.326;2023-03-19T05:29:31;100995.16;;;10.57;78.10
15750;BME280;7976;52.526;13.326;2023-03-19T05:32:21;100989.97;;;10.55;79.90
15750;BME280;7976;52.526;13.326;2023-03-19T05:34:48;100977.75;;;10.56;81.51
15750;BME280;7976;52.526;13.326;2023-03-19T05:37:16;100950.78;;;10.54;82.11
15750;BME280;7976;52.526;13.326;2023-03-19T05:39:46;100916.47;;;10.37;82.58
15750;BME280;7976;52.526;13.326;2023-03-19T05:42:13;100914.81;;;10.06;84.00
15750;BME280;7976;52.526;13.326;2023-03-19T05:44:43;100917.31;;;9.83;86.12
15750;BME280;7976;52.526;13.326;2023-03-19T05:47:24;100915.88;;;9.73;87.86
15750;BME280;7976;52.526;13.326;2023-03-19T05:49:54;100919.31;;;9.75;88.97
15750;BME280;7976;52.526;13.326;2023-03-19T05:52:22;100914.81;;;9.80;90.04
15750;BME280;7976;52.526;13.326;2023-03-19T05:54:51;100910.41;;;9.82;90.51
15750;BME280;7976;52.526;13.326;2023-03-19T05:57:30;100912.84;;;9.87;91.52
15750;BME280;7976;52.526;13.326;2023-03-19T06:00:07;100907.47;;;9.91;92.01
15750;BME280;7976;52.526;13.326;2023-03-19T06:02:36;100920.38;;;9.97;92.65
15750;BME280;7976;52.526;13.326;2023-03-19T06:05:19;100909.84;;;9.99;92.93
15750;BME280;7976;52.526;13.326;2023-03-19T06:07:46;100909.81;;;10.00;93.36
15750;BME280;7976;52.526;13.326;2023-03-19T06:10:26;100914.00;;;10.06;93.93
15750;BME280;7976;52.526;13.326;2023-03-19T06:12:56;100917.28;;;10.13;94.01
15750;BME280;7976;52.526;13.326;2023-03-19T06:15:39;100924.09;;;10.17;94.28
15750;BME280;7976;52.526;13.326;2023-03-19T06:18:22;100927.38;;;10.23;94.73
15750;BME280;7976;52.526;13.326;2023-03-19T06:20:49;100931.44;;;10.32;94.82
15750;BME280;7976;52.526;13.326;2023-03-19T06:23:17;100928.59;;;10.39;94.90
15750;BME280;7976;52.526;13.326;2023-03-19T06:25:44;100942.38;;;10.44;94.51
15750;BME280;7976;52.526;13.326;2023-03-19T06:28:12;100945.66;;;10.51;94.52
15750;BME280;7976;52.526;13.326;2023-03-19T06:30:42;100948.03;;;10.57;94.27
15750;BME280;7976;52.526;13.326;2023-03-19T06:33:30;100951.34;;;10.62;94.13
15750;BME280;7976;52.526;13.326;2023-03-19T06:35:59;100953.69;;;10.71;94.01
15750;BME280;7976;52.526;13.326;2023-03-19T06:38:27;100955.00;;;10.82;93.37
15750;BME280;7976;52.526;13.326;2023-03-19T06:40:54;100967.63;;;10.96;93.24
15750;BME280;7976;52.526;13.326;2023-03-19T06:43:21;100986.41;;;11.07;92.86
15750;BME280;7976;52.526;13.326;2023-03-19T06:45:48;101010.69;;;11.12;92.98
15750;BME280;7976;52.526;13.326;2023-03-19T06:48:15;101020.31;;;11.11;93.22
15750;BME280;7976;52.526;13.326;2023-03-19T06:50:46;101016.16;;;11.06;93.61
15750;BME280;7976;52.526;13.326;2023-03-19T06:53:13;101023.31;;;11.01;94.31
15750;BME280;7976;52.526;13.326;2023-03-19T06:55:40;101025.06;;;11.00;94.87
15750;BME280;7976;52.526;13.326;2023-03-19T06:58:07;101027.72;;;10.99;95.01
15750;BME280;7976;52.526;13.326;2023-03-19T07:00:34;101057.50;;;10.96;95.32
15750;BME280;7976;52.526;13.326;2023-03-19T07:03:01;101089.06;;;10.92;95.68
15750;BME280;7976;52.526;13.326;2023-03-19T07:05:28;101112.19;;;10.79;95.52
15750;BME280;7976;52.526;13.326;2023-03-19T07:07:56;101091.03;;;10.59;95.98
15750;BME280;7976;52.526;13.326;2023-03-19T07:10:23;101083.72;;;10.43;96.40
15750;BME280;7976;52.526;13.326;2023-03-19T07:12:50;101082.22;;;10.34;97.14
15750;BME280;7976;52.526;13.326;2023-03-19T07:15:17;101094.59;;;10.29;97.65
15750;BME280;7976;52.526;13.326;2023-03-19T07:17:46;101125.25;;;10.24;97.65
15750;BME280;7976;52.526;13.326;2023-03-19T07:20:13;101122.81;;;10.18;97.50
15750;BME280;7976;52.526;13.326;2023-03-19T07:22:41;101112.44;;;10.15;97.76
15750;BME280;7976;52.526;13.326;2023-03-19T07:25:12;101085.47;;;10.13;98.10
15750;BME280;7976;52.526;13.326;2023-03-19T07:27:39;101077.59;;;10.15;98.20
15750;BME280;7976;52.526;13.326;2023-03-19T07:30:08;101060.09;;;10.17;98.64
15750;BME280;7976;52.526;13.326;2023-03-19T07:32:36;101034.97;;;10.13;98.26
15750;BME280;7976;52.526;13.326;2023-03-19T07:35:05;101018.75;;;10.00;97.99
15750;BME280;7976;52.526;13.326;2023-03-19T07:37:33;101020.78;;;9.90;98.18
15750;BME280;7976;52.526;13.326;2023-03-19T07:39:59;101023.50;;;9.87;98.51
15750;BME280;7976;52.526;13.326;2023-03-19T07:42:28;101013.09;;;9.86;99.00
15750;BME280;7976;52.526;13.326;2023-03-19T07:44:55;101022.56;;;9.88;99.48
15750;BME280;7976;52.526;13.326;2023-03-19T07:47:22;101022.44;;;9.93;99.71
15750;BME280;7976;52.526;13.326;2023-03-19T07:49:49;101011.13;;;9.92;99.63
15750;BME280;7976;52.526;13.326;2023-03-19T07:52:16;101019.81;;;9.93;99.85
15750;BME280;7976;52.526;13.326;2023-03-19T07:54:43;101034.53;;;9.97;99.99
15750;BME280;7976;52.526;13.326;2023-03-19T07:57:10;101027.59;;;9.96;99.98
15750;BME280;7976;52.526;13.326;2023-03-19T07:59:39;101035.38;;;9.97;100.00
15750;BME280;7976;52.526;13.326;2023-03-19T08:02:05;101032.81;;;9.96;100.00
15750;BME280;7976;52.526;13.326;2023-03-19T08:04:32;101034.56;;;9.95;100.00
15750;BME280;7976;52.526;13.326;2023-03-19T08:06:59;101022.41;;;9.94;100.00
15750;BME280;7976;52.526;13.326;2023-03-19T08:09:26;101027.63;;;9.94;100.00
15750;BME280;7976;52.526;13.326;2023-03-19T08:11:53;101031.09;;;9.95;100.00
15750;BME280;7976;52.526;13.326;2023-03-19T08:14:20;101038.88;;;9.96;100.00
15750;BME280;7976;52.526;13.326;2023-03-19T08:16:49;101040.50;;;10.00;100.00
15750;BME280;7976;52.526;13.326;2023-03-19T08:19:16;101058.75;;;10.02;100.00
15750;BME280;7976;52.526;13.326;2023-03-19T08:21:45;101070.81;;;10.07;100.00
15750;BME280;7976;52.526;13.326;2023-03-19T08:24:13;101083.88;;;10.07;100.00
15750;BME280;7976;52.526;13.326;2023-03-19T08:26:40;101090.91;;;10.05;100.00
15750;BME280;7976;52.526;13.326;2023-03-19T08:29:07;101093.53;;;10.05;100.00
15750;BME280;7976;52.526;13.326;2023-03-19T08:31:34;101104.84;;;10.06;100.00
15750;BME280;7976;52.526;13.326;2023-03-19T08:34:04;101114.38;;;10.07;100.00
15750;BME280;7976;52.526;13.326;2023-03-19T08:36:31;101117.88;;;10.07;100.00
15750;BME280;7976;52.526;13.326;2023-03-19T08:38:58;101113.53;;;10.06;100.00
15750;BME280;7976;52.526;13.326;2023-03-19T08:41:25;101114.44;;;10.05;100.00
15750;BME280;7976;52.526;13.326;2023-03-19T08:43:52;101099.50;;;10.10;100.00
15750;BME280;7976;52.526;13.326;2023-03-19T08:46:19;101106.38;;;10.15;100.00
15750;BME280;7976;52.526;13.326;2023-03-19T08:48:46;101103.03;;;10.09;100.00
15750;BME280;7976;52.526;13.326;2023-03-19T08:51:14;101103.13;;;10.05;100.00
15750;BME280;7976;52.526;13.326;2023-03-19T08:53:41;101108.41;;;10.03;100.00
15750;BME280;7976;52.526;13.326;2023-03-19T08:56:08;101101.31;;;10.07;100.00
15750;BME280;7976;52.526;13.326;2023-03-19T08:58:35;101102.13;;;10.10;100.00
15750;BME280;7976;52.526;13.326;2023-03-19T09:01:04;101089.88;;;10.13;100.00
15750;BME280;7976;52.526;13.326;2023-03-19T09:03:32;101076.78;;;10.13;100.00
15750;BME280;7976;52.526;13.326;2023-03-19T09:05:59;101066.38;;;10.11;100.00
15750;BME280;7976;52.526;13.326;2023-03-19T09:08:29;101070.84;;;10.06;100.00
15750;BME280;7976;52.526;13.326;2023-03-19T09:10:57;101075.16;;;10.08;100.00
15750;BME280;7976;52.526;13.326;2023-03-19T09:13:24;101071.56;;;10.13;100.00
15750;BME280;7976;52.526;13.326;2023-03-19T09:15:52;101064.25;;;10.24;100.00
15750;BME280;7976;52.526;13.326;2023-03-19T09:18:19;101058.88;;;10.28;100.00
15750;BME280;7976;52.526;13.326;2023-03-19T09:20:49;101054.59;;;10.26;100.00
15750;BME280;7976;52.526;13.326;2023-03-19T09:23:16;101050.28;;;10.23;100.00
15750;BME280;7976;52.526;13.326;2023-03-19T09:25:45;101049.47;;;10.23;100.00
15750;BME280;7976;52.526;13.326;2023-03-19T09:28:12;101051.16;;;10.24;100.00
15750;BME280;7976;52.526;13.326;2023-03-19T09:30:40;101041.63;;;10.23;100.00
15750;BME280;7976;52.526;13.326;2023-03-19T09:33:07;101032.81;;;10.25;100.00
15750;BME280;7976;52.526;13.326;2023-03-19T09:35:35;101043.16;;;10.30;100.00
15750;BME280;7976;52.526;13.326;2023-03-19T09:38:04;101039.41;;;10.37;100.00
15750;BME280;7976;52.526;13.326;2023-03-19T09:40:36;101032.97;;;10.48;100.00
15750;BME280;7976;52.526;13.326;2023-03-19T09:43:35;101036.84;;;10.63;100.00
15750;BME280;7976;52.526;13.326;2023-03-19T09:46:13;101035.47;;;10.77;100.00
15750;BME280;7976;52.526;13.326;2023-03-19T09:48:49;101034.91;;;10.94;100.00
15750;BME280;7976;52.526;13.326;2023-03-19T09:51:22;101030.75;;;11.13;100.00
15750;BME280;7976;52.526;13.326;2023-03-19T09:53:57;101038.06;;;11.28;100.00
15750;BME280;7976;52.526;13.326;2023-03-19T09:56:25;101028.06;;;11.39;100.00
15750;BME280;7976;52.526;13.326;2023-03-19T09:58:54;101030.34;;;11.48;99.78
15750;BME280;7976;52.526;13.326;2023-03-19T10:01:25;101027.22;;;11.62;99.83
15750;BME280;7976;52.526;13.326;2023-03-19T10:04:20;101026.06;;;11.70;99.62
15750;BME280;7976;52.526;13.326;2023-03-19T10:07:03;101026.91;;;11.71;98.86
15750;BME280;7976;52.526;13.326;2023-03-19T10:09:48;101027.78;;;11.71;98.77
15750;BME280;7976;52.526;13.326;2023-03-19T10:12:31;101027.66;;;11.74;98.45
15750;BME280;7976;52.526;13.326;2023-03-19T10:15:24;101034.69;;;11.74;98.25
15750;BME280;7976;52.526;13.326;2023-03-19T10:17:58;101033.00;;;11.71;98.39
15750;BME280;7976;52.526;13.326;2023-03-19T10:20:36;101024.13;;;11.75;98.51
15750;BME280;7976;52.526;13.326;2023-03-19T10:23:36;101030.13;;;11.79;98.38
15750;BME280;7976;52.526;13.326;2023-03-19T10:26:12;101035.88;;;11.88;98.73
15750;BME280;7976;52.526;13.326;2023-03-19T10:28:45;101038.94;;;11.99;98.49
15750;BME280;7976;52.526;13.326;2023-03-19T10:31:27;101040.16;;;12.12;98.53
15750;BME280;7976;52.526;13.326;2023-03-19T10:34:10;101037.81;;;12.28;98.64
15750;BME280;7976;52.526;13.326;2023-03-19T10:36:40;101041.78;;;12.38;98.42
15750;BME280;7976;52.526;13.326;2023-03-19T10:39:08;101043.97;;;12.48;98.07
15750;BME280;7976;52.526;13.326;2023-03-19T10:41:47;101046.06;;;12.62;97.60
15750;BME280;7976;52.526;13.326;2023-03-19T10:44:27;101041.81;;;12.80;97.33
15750;BME280;7976;52.526;13.326;2023-03-19T10:47:11;101036.13;;;12.90;97.11
15750;BME280;7976;52.526;13.326;2023-03-19T10:49:39;101045.38;;;12.99;96.52
15750;BME280;7976;52.526;13.326;2023-03-19T10:52:16;101042.53;;;13.05;96.37
15750;BME280;7976;52.526;13.326;2023-03-19T10:54:44;101043.38;;;13.05;94.98
15750;BME280;7976;52.526;13.326;2023-03-19T10:57:24;101046.19;;;13.01;94.62
15750;BME280;7976;52.526;13.326;2023-03-19T10:59:52;101047.09;;;13.00;94.48
15750;BME280;7976;52.526;13.326;2023-03-19T11:02:24;101037.56;;;12.97;94.30
15750;BME280;7976;52.526;13.326;2023-03-19T11:05:21;101036.84;;;12.94;93.83
15750;BME280;7976;52.526;13.326;2023-03-19T11:08:03;101042.38;;;12.88;93.45
15750;BME280;7976;52.526;13.326;2023-03-19T11:11:24;101049.19;;;12.92;93.26
15750;BME280;7976;52.526;13.326;2023-03-19T11:14:18;101049.03;;;12.95;93.32
15750;BME280;7976;52.526;13.326;2023-03-19T11:17:15;101045.31;;;13.00;93.62
15750;BME280;7976;52.526;13.326;2023-03-19T11:20:12;101037.91;;;13.10;93.69
15750;BME280;7976;52.526;13.326;2023-03-19T11:22:45;101050.69;;;13.19;93.49
15750;BME280;7976;52.526;13.326;2023-03-19T11:25:17;101048.78;;;13.22;93.14
15750;BME280;7976;52.526;13.326;2023-03-19T11:28:00;101052.97;;;13.26;93.23
15750;BME280;7976;52.526;13.326;2023-03-19T11:30:39;101047.78;;;13.25;92.88
15750;BME280;7976;52.526;13.326;2023-03-19T11:34:15;101036.69;;;13.18;92.24
15750;BME280;7976;52.526;13.326;2023-03-19T11:37:36;101051.19;;;13.27;91.67
15750;BME280;7976;52.526;13.326;2023-03-19T11:40:41;101035.44;;;13.27;91.81
15750;BME280;7976;52.526;13.326;2023-03-19T11:43:34;101038.84;;;13.29;91.17
15750;BME280;7976;52.526;13.326;2023-03-19T11:46:43;101047.41;;;13.34;90.69
15750;BME280;7976;52.526;13.326;2023-03-19T11:50:00;101047.41;;;13.34;90.05
15750;BME280;7976;52.526;13.326;2023-03-19T11:56:41;101042.78;;;13.39;89.18
15750;BME280;7976;52.526;13.326;2023-03-19T12:00:10;101038.84;;;13.49;88.88
15750;BME280;7976;52.526;13.326;2023-03-19T12:04:05;101037.97;;;13.48;87.09
15750;BME280;7976;52.526;13.326;2023-03-19T12:07:11;101037.91;;;13.50;86.36
15750;BME280;7976;52.526;13.326;2023-03-19T12:09:55;101040.34;;;13.54;86.74
15750;BME280;7976;52.526;13.326;2023-03-19T12:12:38;101028.81;;;13.57;87.73
15750;BME280;7976;52.526;13.326;2023-03-19T12:15:18;101036.38;;;13.64;87.48
15750;BME280;7976;52.526;13.326;2023-03-19T12:18:03;101027.69;;;13.62;86.59
15750;BME280;7976;52.526;13.326;2023-03-19T12:20:44;101025.22;;;13.59;85.79
15750;BME280;7976;52.526;13.326;2023-03-19T12:26:24;101032.34;;;13.76;85.37
15750;BME280;7976;52.526;13.326;2023-03-19T12:29:06;101031.97;;;13.83;85.46
15750;BME280;7976;52.526;13.326;2023-03-19T12:32:05;101034.13;;;13.94;86.20
15750;BME280;7976;52.526;13.326;2023-03-19T12:34:42;101028.72;;;13.97;86.54
15750;BME280;7976;52.526;13.326;2023-03-19T12:37:18;101023.19;;;14.03;86.97
15750;BME280;7976;52.526;13.326;2023-03-19T12:40:11;101023.03;;;14.06;87.35
15750;BME280;7976;52.526;13.326;2023-03-19T12:42:44;101012.34;;;14.09;87.16
15750;BME280;7976;52.526;13.326;2023-03-19T12:45:26;101011.16;;;14.16;87.23
15750;BME280;7976;52.526;13.326;2023-03-19T12:47:59;101020.47;;;14.23;87.69
15750;BME280;7976;52.526;13.326;2023-03-19T12:50:33;101016.78;;;14.27;87.22
15750;BME280;7976;52.526;13.326;2023-03-19T12:53:25;101020.19;;;14.29;87.04
15750;BME280;7976;52.526;13.326;2023-03-19T12:55:59;101008.09;;;14.25;87.26
15750;BME280;7976;52.526;13.326;2023-03-19T13:01:39;101017.03;;;14.21;87.48
15750;BME280;7976;52.526;13.326;2023-03-19T13:04:13;101011.63;;;14.24;87.40
15750;BME280;7976;52.526;13.326;2023-03-19T13:06:52;101019.31;;;14.29;87.37
15750;BME280;7976;52.526;13.326;2023-03-19T13:09:35;101021.75;;;14.33;87.87
15750;BME280;7976;52.526;13.326;2023-03-19T13:12:12;101020.66;;;14.37;87.35
15750;BME280;7976;52.526;13.326;2023-03-19T13:14:53;101011.78;;;14.40;86.86
15750;BME280;7976;52.526;13.326;2023-03-19T13:17:39;101015.13;;;14.43;86.30
15750;BME280;7976;52.526;13.326;2023-03-19T13:20:24;101010.41;;;14.50;85.71
15750;BME280;7976;52.526;13.326;2023-03-19T13:23:01;101004.91;;;14.54;84.78
15750;BME280;7976;52.526;13.326;2023-03-19T13:25:36;101002.91;;;14.59;84.96
15750;BME280;7976;52.526;13.326;2023-03-19T13:28:09;101006.00;;;14.67;85.12
15750;BME280;7976;52.526;13.326;2023-03-19T13:30:37;101007.56;;;14.71;85.67
15750;BME280;7976;52.526;13.326;2023-03-19T13:33:20;101009.81;;;14.79;85.98
15750;BME280;7976;52.526;13.326;2023-03-19T13:35:51;101006.97;;;14.83;86.40
15750;BME280;7976;52.526;13.326;2023-03-19T13:38:38;100991.97;;;14.84;86.58
15750;BME280;7976;52.526;13.326;2023-03-19T13:42:20;101000.28;;;14.93;87.12